createdAt,value
2019-06-08T00:03:03.716Z,47.10
2019-06-08T00:08:07.999Z,47.20
2019-06-08T00:13:13.129Z,47.50
2019-06-08T00:18:17.424Z,47.20
2019-06-08T00:23:22.040Z,47.20
2019-06-08T00:28:26.416Z,47.10
2019-06-08T00:33:30.740Z,47.80
2019-06-08T00:38:35.027Z,47.30
2019-06-08T00:43:39.316Z,47.10
2019-06-08T00:48:43.360Z,47.40
2019-06-08T00:53:47.737Z,47.20
2019-06-08T00:58:51.800Z,47.70
2019-06-08T01:03:55.707Z,47.40
2019-06-08T01:08:59.626Z,47.20
2019-06-08T01:14:03.651Z,47.30
2019-06-08T01:19:07.590Z,47.30
2019-06-08T01:24:11.607Z,47.10
2019-06-08T01:29:15.543Z,47.50
2019-06-08T01:34:20.550Z,47.40
2019-06-08T01:39:25.170Z,47.90
2019-06-08T01:44:30.055Z,47.50
2019-06-08T01:49:34.422Z,47.50
2019-06-08T01:54:38.283Z,47.30
2019-06-08T01:59:42.338Z,47.60
2019-06-08T02:04:46.344Z,47.40
2019-06-08T02:09:50.202Z,47.50
2019-06-08T02:14:54.058Z,47.60
2019-06-08T02:19:58.287Z,47.30
2019-06-08T02:25:02.519Z,47.50
2019-06-08T02:30:08.353Z,47.40
2019-06-08T02:35:12.769Z,47.40
2019-06-08T02:40:16.896Z,47.20
2019-06-08T02:45:20.896Z,47.30
2019-06-08T02:51:02.938Z,47.10
2019-06-08T02:56:07.011Z,47.20
2019-06-08T03:01:11.479Z,47.10
2019-06-08T03:06:17.963Z,47.00
2019-06-08T03:11:21.960Z,46.90
2019-06-08T03:16:26.215Z,46.90
2019-06-08T03:21:31.400Z,46.70
2019-06-08T03:26:36.689Z,46.80
2019-06-08T03:31:51.640Z,46.80
2019-06-08T03:36:55.257Z,46.70
2019-06-08T03:41:52.956Z,47.10
2019-06-08T03:46:57.244Z,46.90
2019-06-08T03:52:01.108Z,47.30
2019-06-08T03:57:05.116Z,47.00
2019-06-08T04:02:09.331Z,47.00
2019-06-08T04:07:13.514Z,47.20
2019-06-08T04:12:17.696Z,46.90
2019-06-08T04:17:21.596Z,47.10
2019-06-08T04:22:25.529Z,47.10
2019-06-08T04:27:29.380Z,46.90
2019-06-08T04:32:33.276Z,46.80
2019-06-08T04:37:38.231Z,46.60
2019-06-08T04:42:44.394Z,46.50
2019-06-08T04:47:50.123Z,46.00
2019-06-08T04:52:54.138Z,45.80
2019-06-08T04:57:58.281Z,45.10
2019-06-08T05:03:02.417Z,44.80
2019-06-08T05:08:06.419Z,45.00
2019-06-08T05:13:10.547Z,44.70
2019-06-08T05:18:14.523Z,44.60
2019-06-08T05:23:18.713Z,45.10
2019-06-08T05:28:23.247Z,44.90
2019-06-08T05:33:27.479Z,45.00
2019-06-08T05:38:31.353Z,45.00
2019-06-08T05:43:35.640Z,44.20
2019-06-08T05:48:39.812Z,43.80
2019-06-08T05:53:43.912Z,44.10
2019-06-08T05:58:48.547Z,43.60
2019-06-08T06:03:52.608Z,43.70
2019-06-08T06:08:56.819Z,43.40
2019-06-08T06:14:00.746Z,43.40
2019-06-08T06:19:04.974Z,43.30
2019-06-08T06:24:08.978Z,43.70
2019-06-08T06:29:12.983Z,43.20
2019-06-08T06:34:16.833Z,43.20
2019-06-08T06:39:20.863Z,42.90
2019-06-08T06:44:25.120Z,42.80
2019-06-08T06:49:28.980Z,41.10
2019-06-08T06:54:32.839Z,42.70
2019-06-08T06:59:36.996Z,41.20
2019-06-08T07:04:40.955Z,41.90
2019-06-08T07:09:46.393Z,42.10
2019-06-08T07:14:51.338Z,42.30
2019-06-08T07:19:55.399Z,42.30
2019-06-08T07:24:59.495Z,42.00
2019-06-08T07:30:04.058Z,42.10
2019-06-08T07:35:08.128Z,42.20
2019-06-08T07:40:12.163Z,42.20
2019-06-08T07:45:16.437Z,42.00
2019-06-08T07:50:20.379Z,42.50
2019-06-08T07:55:24.331Z,41.90
2019-06-08T08:00:28.666Z,42.10
2019-06-08T08:05:32.971Z,41.60
2019-06-08T08:10:37.194Z,41.60
2019-06-08T08:15:41.136Z,41.90
2019-06-08T08:20:45.146Z,41.80
2019-06-08T08:25:50.451Z,41.80
2019-06-08T08:30:58.571Z,41.70
2019-06-08T08:36:02.046Z,41.90
2019-06-08T08:41:08.317Z,41.80
2019-06-08T08:46:12.158Z,41.80
2019-06-08T08:51:17.987Z,42.10
2019-06-08T08:56:21.957Z,41.70
2019-06-08T09:01:28.556Z,42.10
2019-06-08T09:06:31.778Z,42.40
2019-06-08T09:11:38.335Z,42.30
2019-06-08T09:16:41.859Z,42.10
2019-06-08T09:21:48.065Z,41.90
2019-06-08T09:26:53.087Z,42.00
2019-06-08T09:31:59.079Z,42.00
2019-06-08T09:37:05.053Z,42.20
2019-06-08T09:42:09.985Z,40.80
2019-06-08T09:47:14.168Z,41.20
2019-06-08T09:52:20.907Z,39.90
2019-06-08T09:57:24.075Z,39.70
2019-06-08T10:02:28.425Z,39.70
2019-06-08T10:07:33.006Z,39.80
2019-06-08T10:12:37.831Z,38.90
2019-06-08T10:17:42.904Z,38.90
2019-06-08T10:22:49.979Z,39.30
2019-06-08T10:27:53.120Z,38.60
2019-06-08T10:33:00.516Z,39.30
2019-06-08T10:38:07.922Z,39.10
2019-06-08T10:43:09.889Z,39.10
2019-06-08T10:48:17.760Z,39.40
2019-06-08T10:53:21.346Z,39.70
2019-06-08T10:58:28.272Z,38.50
2019-06-08T11:03:31.657Z,39.70
2019-06-08T11:08:35.656Z,39.10
2019-06-08T11:13:39.808Z,38.90
2019-06-08T11:18:43.900Z,39.40
2019-06-08T11:24:04.597Z,38.80
2019-06-08T11:28:53.467Z,39.10
2019-06-08T11:33:58.906Z,38.20
2019-06-08T11:39:04.209Z,38.80
2019-06-08T11:44:13.623Z,39.10
2019-06-08T11:49:15.309Z,38.80
2019-06-08T11:54:32.795Z,39.70
2019-06-08T11:59:28.476Z,38.60
2019-06-08T12:04:32.801Z,39.80
2019-06-08T12:09:37.962Z,39.40
2019-06-08T12:14:42.192Z,38.90
2019-06-08T12:19:47.639Z,38.70
2019-06-08T12:24:52.495Z,39.20
2019-06-08T12:29:58.602Z,39.30
2019-06-08T12:35:02.299Z,38.60
2019-06-08T12:40:09.343Z,39.00
2019-06-08T12:45:13.387Z,39.70
2019-06-08T12:50:17.602Z,41.30
2019-06-08T12:55:25.079Z,39.10
2019-06-08T13:00:29.091Z,39.20
2019-06-08T13:05:33.452Z,38.20
2019-06-08T13:10:38.183Z,38.00
2019-06-08T13:15:42.824Z,38.90
2019-06-08T13:20:51.445Z,38.80
2019-06-08T13:25:52.927Z,38.60
2019-06-08T13:30:58.101Z,38.10
2019-06-08T13:36:02.267Z,38.90
2019-06-08T13:41:08.625Z,38.90
2019-06-08T13:46:12.178Z,38.30
2019-06-08T13:51:19.907Z,38.40
2019-06-08T13:56:22.714Z,38.60
2019-06-08T14:01:30.827Z,37.30
2019-06-08T14:06:33.963Z,37.50
2019-06-08T14:11:38.094Z,37.60
2019-06-08T14:16:42.378Z,38.30
2019-06-08T14:21:47.631Z,37.80
2019-06-08T14:26:51.814Z,38.40
2019-06-08T14:31:57.732Z,38.00
2019-06-08T14:37:02.255Z,37.90
2019-06-08T14:42:08.234Z,37.60
2019-06-08T14:47:14.929Z,37.60
2019-06-08T14:52:20.415Z,39.40
2019-06-08T14:57:25.277Z,38.80
2019-06-08T15:02:31.360Z,38.50
2019-06-08T15:07:35.836Z,38.40
2019-06-08T15:12:39.758Z,42.00
2019-06-08T15:17:43.990Z,40.60
2019-06-08T15:22:48.012Z,41.30
2019-06-08T15:27:52.555Z,40.40
2019-06-08T15:32:58.637Z,42.50
2019-06-08T15:38:02.419Z,43.30
2019-06-08T15:43:08.654Z,43.60
2019-06-08T15:48:12.540Z,43.90
2019-06-08T15:53:18.402Z,43.90
2019-06-08T15:58:22.843Z,43.60
2019-06-08T16:03:27.464Z,43.60
2019-06-08T16:08:32.352Z,43.90
2019-06-08T16:13:36.521Z,44.30
2019-06-08T16:18:41.035Z,45.10
2019-06-08T16:23:45.065Z,47.70
2019-06-08T16:28:49.015Z,50.10
2019-06-08T16:33:53.561Z,46.00
2019-06-08T16:38:58.039Z,43.90
2019-06-08T16:44:01.979Z,43.40
2019-06-08T16:49:06.236Z,42.50
2019-06-08T16:54:10.862Z,42.00
2019-06-08T16:59:15.151Z,42.00
2019-06-08T17:04:19.448Z,42.30
2019-06-08T17:09:23.900Z,42.30
2019-06-08T17:14:29.878Z,42.40
2019-06-08T17:19:34.186Z,42.90
2019-06-08T17:24:38.661Z,43.20
2019-06-08T17:29:43.119Z,43.00
2019-06-08T17:34:47.131Z,43.60
2019-06-08T17:39:51.743Z,42.70
2019-06-08T17:44:55.629Z,43.30
2019-06-08T17:49:59.562Z,43.50
2019-06-08T17:55:03.835Z,43.70
2019-06-08T18:00:09.299Z,43.30
2019-06-08T18:05:14.668Z,43.80
2019-06-08T18:10:19.307Z,44.00
2019-06-08T18:15:23.262Z,44.40
2019-06-08T18:20:28.240Z,44.40
2019-06-08T18:25:32.732Z,44.60
2019-06-08T18:30:39.727Z,44.90
2019-06-08T18:35:44.469Z,45.10
2019-06-08T18:40:48.485Z,44.90
2019-06-08T18:45:52.590Z,45.10
2019-06-08T18:50:57.235Z,44.70
2019-06-08T18:56:01.601Z,45.10
2019-06-08T19:01:08.259Z,45.40
2019-06-08T19:06:12.116Z,45.30
2019-06-08T19:11:16.720Z,45.50
2019-06-08T19:16:22.631Z,46.00
2019-06-08T19:21:27.806Z,45.90
2019-06-08T19:26:32.647Z,46.10
2019-06-08T19:31:38.974Z,46.20
2019-06-08T19:36:43.121Z,46.30
2019-06-08T19:41:50.161Z,46.10
2019-06-08T19:46:53.806Z,46.20
2019-06-08T19:51:58.139Z,46.30
2019-06-08T19:57:03.563Z,46.40
2019-06-08T20:02:08.667Z,47.00
2019-06-08T20:07:13.134Z,46.30
2019-06-08T20:12:18.732Z,46.30
2019-06-08T20:17:22.958Z,46.50
2019-06-08T20:22:27.666Z,45.60
2019-06-08T20:27:32.039Z,46.60
2019-06-08T20:32:37.845Z,46.70
2019-06-08T20:37:41.640Z,46.80
2019-06-08T20:42:48.986Z,47.00
2019-06-08T20:47:52.696Z,47.00
2019-06-08T20:52:57.654Z,47.10
2019-06-08T20:58:02.203Z,47.10
2019-06-08T21:03:08.176Z,46.90
2019-06-08T21:08:12.335Z,46.80
2019-06-08T21:13:17.957Z,47.00
2019-06-08T21:18:21.990Z,46.90
2019-06-08T21:23:28.159Z,46.90
2019-06-08T21:28:31.867Z,47.00
2019-06-08T21:33:37.844Z,47.20
2019-06-08T21:38:41.651Z,47.20
2019-06-08T21:43:45.823Z,47.00
2019-06-08T21:48:51.568Z,47.00
2019-06-08T21:53:58.742Z,47.30
2019-06-08T21:59:01.230Z,47.20
2019-06-08T22:04:07.803Z,47.30
2019-06-08T22:09:11.904Z,47.40
2019-06-08T22:14:15.797Z,47.40
2019-06-08T22:19:20.051Z,47.40
2019-06-08T22:24:24.363Z,47.10
2019-06-08T22:29:28.495Z,47.30
2019-06-08T22:34:32.731Z,47.30
2019-06-08T22:39:37.498Z,47.40
2019-06-08T22:44:41.500Z,47.40
2019-06-08T22:49:47.686Z,46.60
2019-06-08T22:54:54.553Z,47.20
2019-06-08T23:00:00.097Z,47.50
2019-06-08T23:05:04.652Z,47.60
2019-06-08T23:10:09.250Z,47.60
2019-06-08T23:15:13.502Z,47.60
2019-06-08T23:20:18.586Z,47.50
2019-06-08T23:25:23.051Z,47.60
2019-06-08T23:30:27.731Z,47.60
2019-06-08T23:35:44.378Z,47.30
2019-06-08T23:40:37.973Z,47.70
2019-06-08T23:45:42.246Z,47.70
2019-06-08T23:50:47.425Z,47.50
2019-06-08T23:55:51.531Z,47.60
